Time;durP1;ratioP1;P1;durP2;ratioP2;P2;SDS_P1;SDS_P2;PMS_P1;PMS_P2;Temp;Humidity;BMP_temperature;BMP_pressure;BME280_temperature;BME280_humidity;BME280_pressure;Samples;Min_cycle;Max_cycle;Signal;HPM_P1;HPM_P2
2023/05/28 00:02:05;;;;;;;7.93;5.50;;;18.50;99.90;;;;;;5075046;28;20474;-78
2023/05/28 00:04:31;;;;;;;7.55;4.40;;;18.60;99.90;;;;;;5075182;28;20041;-78
2023/05/28 00:06:57;;;;;;;7.18;4.80;;;18.60;99.90;;;;;;5075457;28;20036;-78
2023/05/28 00:09:22;;;;;;;7.82;4.88;;;18.60;99.90;;;;;;5075120;28;20025;-78
2023/05/28 00:11:48;;;;;;;7.72;5.18;;;18.50;99.90;;;;;;5074943;28;20391;-78
2023/05/28 00:14:14;;;;;;;9.65;5.20;;;18.60;99.90;;;;;;5075056;28;20025;-78
2023/05/28 00:16:40;;;;;;;9.13;5.68;;;18.50;99.90;;;;;;5073617;28;20398;-78
2023/05/28 00:19:07;;;;;;;10.52;4.70;;;18.50;99.90;;;;;;5075049;28;20052;-78
2023/05/28 00:21:34;;;;;;;9.88;5.45;;;18.40;99.90;;;;;;5074905;28;20054;-78
2023/05/28 00:23:59;;;;;;;8.80;5.18;;;18.40;99.90;;;;;;5074766;28;20028;-78
2023/05/28 00:26:28;;;;;;;10.18;5.35;;;18.30;99.90;;;;;;5074861;28;20040;-78
2023/05/28 00:28:54;;;;;;;9.85;5.53;;;18.20;99.90;;;;;;5075113;28;20031;-78
2023/05/28 00:31:19;;;;;;;9.02;5.13;;;18.20;99.90;;;;;;5073990;28;20060;-78
2023/05/28 00:33:45;;;;;;;8.18;4.72;;;18.10;99.90;;;;;;5074776;28;20025;-78
2023/05/28 00:36:14;;;;;;;8.15;4.80;;;18.10;99.90;;;;;;5074758;28;20060;-78
2023/05/28 00:38:40;;;;;;;8.95;5.10;;;17.80;99.90;;;;;;5074463;28;20036;-78
2023/05/28 00:41:06;;;;;;;9.20;5.20;;;17.70;99.90;;;;;;5074724;28;20033;-78
2023/05/28 00:43:32;;;;;;;8.05;4.80;;;17.60;99.90;;;;;;5074252;28;20086;-78
2023/05/28 00:46:01;;;;;;;12.82;5.55;;;17.70;99.90;;;;;;5074570;28;20094;-78
2023/05/28 00:48:28;;;;;;;8.25;5.43;;;17.90;99.90;;;;;;5074272;28;20058;-78
2023/05/28 00:50:54;;;;;;;8.93;4.95;;;17.60;99.90;;;;;;5074322;28;20431;-78
2023/05/28 00:53:20;;;;;;;8.52;5.78;;;17.60;99.90;;;;;;5073826;28;20082;-78
2023/05/28 00:55:47;;;;;;;7.05;4.82;;;17.30;99.90;;;;;;5073863;28;20053;-78
2023/05/28 00:58:15;;;;;;;7.90;4.78;;;17.30;99.90;;;;;;5074090;28;20035;-78
2023/05/28 01:00:45;;;;;;;7.15;5.10;;;17.20;99.90;;;;;;5074279;28;20127;-78
2023/05/28 01:03:11;;;;;;;10.27;5.65;;;17.10;99.90;;;;;;5055630;28;20025;-80
2023/05/28 01:05:37;;;;;;;8.88;5.10;;;17.10;99.90;;;;;;5053537;28;20033;-80
2023/05/28 01:08:06;;;;;;;8.70;5.35;;;17.20;99.90;;;;;;5053672;28;20070;-80
2023/05/28 01:10:33;;;;;;;7.85;5.43;;;17.10;99.90;;;;;;5054188;28;20060;-80
2023/05/28 01:13:01;;;;;;;10.65;5.88;;;17.10;99.90;;;;;;5053918;28;20028;-80
2023/05/28 01:15:27;;;;;;;8.25;5.90;;;17.20;99.90;;;;;;5053767;28;20040;-80
2023/05/28 01:17:57;;;;;;;8.98;6.15;;;17.20;99.90;;;;;;5053751;28;20033;-80
2023/05/28 01:20:24;;;;;;;11.55;6.25;;;17.30;99.90;;;;;;5053729;28;20017;-79
2023/05/28 01:22:55;;;;;;;9.82;5.88;;;17.30;99.90;;;;;;5053572;28;20438;-79
2023/05/28 01:25:22;;;;;;;7.78;5.30;;;17.10;99.90;;;;;;5053599;28;20029;-80
2023/05/28 01:27:48;;;;;;;9.32;5.97;;;16.80;99.90;;;;;;5053555;28;20483;-80
2023/05/28 01:30:14;;;;;;;8.98;4.88;;;16.80;99.90;;;;;;5053627;28;20025;-80
2023/05/28 01:32:39;;;;;;;9.70;5.68;;;16.80;99.90;;;;;;5053406;28;20032;-79
2023/05/28 01:35:08;;;;;;;11.32;5.38;;;16.80;99.90;;;;;;5053270;28;20491;-80
2023/05/28 01:37:37;;;;;;;13.02;6.25;;;16.90;99.90;;;;;;5053373;28;20025;-79
2023/05/28 01:40:04;;;;;;;12.93;6.50;;;16.80;99.90;;;;;;5053597;28;20021;-79
2023/05/28 01:42:32;;;;;;;10.27;6.18;;;16.80;99.90;;;;;;5068962;28;20143;-79
2023/05/28 01:44:59;;;;;;;9.48;5.68;;;16.60;99.90;;;;;;5053435;28;20033;-79
2023/05/28 01:47:25;;;;;;;11.07;5.40;;;16.50;99.90;;;;;;5053018;28;20497;-79
2023/05/28 01:49:51;;;;;;;7.95;5.25;;;16.60;99.90;;;;;;5053316;28;20096;-80
2023/05/28 01:52:16;;;;;;;11.98;6.45;;;16.30;99.90;;;;;;5053298;28;20067;-79
2023/05/28 01:54:42;;;;;;;10.43;5.68;;;16.50;99.90;;;;;;5053032;28;20374;-80
2023/05/28 01:57:08;;;;;;;7.68;5.82;;;16.60;99.90;;;;;;5052994;28;20049;-80
2023/05/28 01:59:33;;;;;;;10.27;6.82;;;16.70;99.90;;;;;;5052855;28;20074;-79
2023/05/28 02:02:00;;;;;;;9.73;5.45;;;16.70;99.90;;;;;;5052980;28;20379;-79
2023/05/28 02:04:25;;;;;;;9.73;5.93;;;17.00;99.90;;;;;;5052795;28;20033;-79
2023/05/28 02:06:51;;;;;;;9.40;6.28;;;17.20;99.90;;;;;;5052942;28;20417;-79
2023/05/28 02:09:17;;;;;;;9.43;6.22;;;17.00;99.90;;;;;;5052897;28;20074;-80
2023/05/28 02:11:43;;;;;;;9.43;6.40;;;17.00;99.90;;;;;;5053148;28;20096;-79
2023/05/28 02:14:14;;;;;;;10.38;6.55;;;17.00;99.90;;;;;;5052755;28;20402;-80
2023/05/28 02:16:42;;;;;;;9.65;6.47;;;16.90;99.90;;;;;;5052522;28;20032;-79
2023/05/28 02:19:09;;;;;;;10.02;5.38;;;17.00;99.90;;;;;;5052993;28;20032;-80
2023/05/28 02:21:36;;;;;;;9.85;5.85;;;16.90;99.90;;;;;;5052906;28;20479;-79
2023/05/28 02:24:01;;;;;;;13.02;6.05;;;17.00;99.90;;;;;;5052542;28;20063;-80
2023/05/28 02:26:27;;;;;;;10.90;6.25;;;17.00;99.90;;;;;;5052843;28;20033;-79
2023/05/28 02:28:53;;;;;;;8.43;5.80;;;16.90;99.90;;;;;;5052801;28;20040;-79
2023/05/28 02:31:19;;;;;;;9.65;5.72;;;16.80;99.90;;;;;;5052470;28;20060;-79
2023/05/28 02:33:44;;;;;;;10.95;6.03;;;16.90;99.90;;;;;;5052715;28;20051;-79
2023/05/28 02:36:14;;;;;;;8.95;5.50;;;17.00;99.90;;;;;;5052779;28;20075;-80
2023/05/28 02:38:41;;;;;;;7.70;5.50;;;16.80;99.90;;;;;;5052680;28;20061;-79
2023/05/28 02:41:07;;;;;;;10.93;6.93;;;16.60;99.90;;;;;;5053088;28;20025;-79
2023/05/28 02:43:33;;;;;;;10.25;6.07;;;16.60;99.90;;;;;;5052609;28;20033;-79
2023/05/28 02:45:58;;;;;;;13.48;5.95;;;16.60;99.90;;;;;;5052468;28;20021;-79
2023/05/28 02:48:25;;;;;;;10.73;6.85;;;16.60;99.90;;;;;;5052424;28;20025;-79
2023/05/28 02:50:50;;;;;;;9.60;5.95;;;16.60;99.90;;;;;;5052683;28;20025;-79
2023/05/28 02:53:20;;;;;;;8.57;5.47;;;16.80;99.90;;;;;;5068406;28;20399;-79
2023/05/28 02:55:46;;;;;;;9.65;6.18;;;16.80;99.90;;;;;;5056457;28;20056;-79
2023/05/28 02:58:12;;;;;;;13.10;5.93;;;16.70;99.90;;;;;;5056495;28;20021;-79
2023/05/28 03:00:38;;;;;;;9.90;5.38;;;16.80;99.90;;;;;;5056095;28;20017;-78
2023/05/28 03:03:04;;;;;;;9.55;6.25;;;16.80;99.90;;;;;;5054253;28;20044;-79
2023/05/28 03:05:31;;;;;;;10.90;5.82;;;16.90;99.90;;;;;;5051347;28;20132;-78
2023/05/28 03:07:58;;;;;;;11.13;6.07;;;16.90;99.90;;;;;;5051623;28;20057;-79
2023/05/28 03:10:23;;;;;;;9.07;6.00;;;16.80;99.90;;;;;;5051353;28;20503;-79
2023/05/28 03:12:49;;;;;;;10.95;6.10;;;16.50;99.90;;;;;;5050907;28;20033;-79
2023/05/28 03:15:15;;;;;;;11.30;6.07;;;16.50;99.90;;;;;;5051413;28;20380;-79
2023/05/28 03:17:40;;;;;;;8.43;6.25;;;16.60;99.90;;;;;;5050331;28;20110;-79
2023/05/28 03:20:09;;;;;;;10.00;6.05;;;16.70;99.90;;;;;;5048464;28;20414;-79
2023/05/28 03:22:36;;;;;;;10.77;5.70;;;16.80;99.90;;;;;;5049133;28;20892;-79
2023/05/28 03:25:02;;;;;;;10.93;5.93;;;16.70;99.90;;;;;;5051447;28;20036;-79
2023/05/28 03:27:28;;;;;;;12.48;6.25;;;16.80;99.90;;;;;;5049737;28;20102;-79
2023/05/28 03:29:53;;;;;;;10.65;6.40;;;16.80;99.90;;;;;;5051603;28;20052;-79
2023/05/28 03:32:19;;;;;;;10.65;6.15;;;16.80;99.90;;;;;;5051533;28;20032;-79
2023/05/28 03:34:45;;;;;;;9.75;6.43;;;16.70;99.90;;;;;;5051713;28;20024;-79
2023/05/28 03:37:11;;;;;;;9.50;5.93;;;16.80;99.90;;;;;;5051496;28;20421;-79
2023/05/28 03:39:37;;;;;;;9.50;5.90;;;16.80;99.90;;;;;;5051170;28;20029;-79
2023/05/28 03:42:03;;;;;;;9.52;5.70;;;16.90;99.90;;;;;;5050893;28;20025;-79
2023/05/28 03:44:29;;;;;;;10.52;5.90;;;16.80;99.90;;;;;;5051108;28;20569;-79
2023/05/28 03:46:54;;;;;;;8.40;5.70;;;16.70;99.90;;;;;;5051178;28;20061;-79
2023/05/28 03:49:20;;;;;;;10.20;6.30;;;16.70;99.90;;;;;;5051143;28;20025;-79
2023/05/28 03:51:46;;;;;;;10.70;5.68;;;16.70;99.90;;;;;;5051494;28;20067;-79
2023/05/28 03:54:11;;;;;;;9.48;6.38;;;16.80;99.90;;;;;;5051229;28;20045;-79
2023/05/28 03:56:37;;;;;;;10.70;6.05;;;16.70;99.90;;;;;;5050665;28;20132;-79
2023/05/28 03:59:03;;;;;;;10.48;6.97;;;16.60;99.90;;;;;;5050925;28;20025;-79
2023/05/28 04:01:28;;;;;;;10.20;6.40;;;16.70;99.90;;;;;;5051293;28;20048;-79
2023/05/28 04:03:55;;;;;;;9.75;5.63;;;16.70;99.90;;;;;;5049698;28;20029;-79
2023/05/28 04:06:22;;;;;;;14.15;7.10;;;16.80;99.90;;;;;;5046804;28;20083;-79
2023/05/28 04:08:48;;;;;;;13.65;6.25;;;16.60;99.90;;;;;;5048893;28;20023;-79
2023/05/28 04:11:14;;;;;;;9.15;5.88;;;16.60;99.90;;;;;;5050844;28;20029;-79
2023/05/28 04:13:40;;;;;;;9.57;6.05;;;16.60;99.90;;;;;;5050863;28;20056;-79
2023/05/28 04:16:06;;;;;;;10.45;5.85;;;16.80;99.90;;;;;;5050789;28;20603;-79
2023/05/28 04:18:32;;;;;;;11.23;6.43;;;16.70;99.90;;;;;;5050864;28;20056;-79
2023/05/28 04:20:58;;;;;;;8.82;6.15;;;16.70;99.90;;;;;;5050933;28;20025;-79
2023/05/28 04:23:24;;;;;;;12.68;6.25;;;16.70;99.90;;;;;;5050454;28;20040;-79
2023/05/28 04:25:50;;;;;;;8.95;6.13;;;16.60;99.90;;;;;;5050507;28;20025;-79
2023/05/28 04:28:16;;;;;;;10.20;6.22;;;16.60;99.90;;;;;;5050596;28;20028;-79
2023/05/28 04:30:41;;;;;;;9.27;6.20;;;16.80;99.90;;;;;;5050596;28;20033;-79
2023/05/28 04:33:08;;;;;;;11.50;6.45;;;16.70;99.90;;;;;;5050413;28;20024;-79
2023/05/28 04:35:34;;;;;;;9.82;5.85;;;16.80;99.90;;;;;;5050389;28;20091;-80
2023/05/28 04:37:59;;;;;;;9.60;5.93;;;16.70;99.90;;;;;;5050537;28;20487;-79
2023/05/28 04:40:25;;;;;;;11.38;5.88;;;16.70;99.90;;;;;;5050296;28;20041;-79
2023/05/28 04:42:54;;;;;;;9.90;6.28;;;16.70;99.90;;;;;;5049874;28;20037;-79
2023/05/28 04:45:19;;;;;;;9.07;6.00;;;16.70;99.90;;;;;;5050019;28;20037;-79
2023/05/28 04:47:45;;;;;;;8.20;6.05;;;16.80;99.90;;;;;;5049640;28;20059;-79
2023/05/28 04:50:11;;;;;;;11.45;6.28;;;16.80;99.90;;;;;;5049879;28;20406;-79
2023/05/28 04:52:37;;;;;;;9.27;5.65;;;16.70;99.90;;;;;;5049778;28;20044;-79
2023/05/28 04:55:06;;;;;;;8.75;5.80;;;16.60;99.90;;;;;;5049534;28;20098;-79
2023/05/28 04:57:32;;;;;;;8.85;5.40;;;16.10;99.90;;;;;;5050009;28;20032;-79
2023/05/28 04:59:58;;;;;;;8.32;5.63;;;16.10;99.90;;;;;;5050138;28;20166;-79
2023/05/28 05:02:24;;;;;;;11.65;6.03;;;16.10;99.90;;;;;;5049869;28;20033;-79
2023/05/28 05:04:50;;;;;;;10.18;6.28;;;16.00;99.90;;;;;;5049795;28;20060;-79
2023/05/28 05:07:16;;;;;;;9.35;5.82;;;16.00;99.90;;;;;;5049941;28;20033;-79
2023/05/28 05:09:42;;;;;;;9.00;6.43;;;16.00;99.90;;;;;;5049846;28;20025;-79
2023/05/28 05:12:09;;;;;;;9.70;5.93;;;16.00;99.90;;;;;;5049844;28;20021;-79
2023/05/28 05:14:35;;;;;;;8.73;5.80;;;16.20;99.90;;;;;;5049988;28;20067;-79
2023/05/28 05:17:02;;;;;;;9.82;5.88;;;16.50;99.90;;;;;;5049267;28;20033;-79
2023/05/28 05:19:27;;;;;;;9.32;6.07;;;16.60;99.90;;;;;;5049525;28;20078;-79
2023/05/28 05:21:53;;;;;;;10.40;6.13;;;16.50;99.90;;;;;;5049287;28;20056;-79
2023/05/28 05:24:19;;;;;;;10.88;6.40;;;16.60;99.90;;;;;;5049158;28;20127;-79
2023/05/28 05:26:45;;;;;;;8.70;5.82;;;16.70;99.90;;;;;;5049404;28;20032;-79
2023/05/28 05:29:10;;;;;;;12.27;5.88;;;16.70;99.90;;;;;;5049325;28;20094;-79
2023/05/28 05:31:36;;;;;;;8.43;5.43;;;16.70;99.90;;;;;;5049299;28;20078;-79
2023/05/28 05:34:02;;;;;;;9.55;5.70;;;16.70;99.90;;;;;;5049211;28;20407;-79
2023/05/28 05:36:27;;;;;;;9.38;7.10;;;16.70;99.90;;;;;;5048911;28;20049;-79
2023/05/28 05:38:53;;;;;;;8.30;5.95;;;16.50;99.90;;;;;;5049050;28;20021;-79
2023/05/28 05:41:19;;;;;;;9.30;6.50;;;16.50;99.90;;;;;;5049711;28;20021;-79
2023/05/28 05:43:44;;;;;;;10.30;6.60;;;16.60;99.90;;;;;;5049267;28;20387;-79
2023/05/28 05:46:10;;;;;;;11.27;5.68;;;16.80;99.90;;;;;;5049176;28;20028;-79
2023/05/28 05:48:36;;;;;;;9.52;6.25;;;16.90;99.90;;;;;;5049335;28;20108;-79
2023/05/28 05:51:02;;;;;;;10.25;6.22;;;16.90;99.90;;;;;;5049011;28;20809;-79
2023/05/28 05:53:28;;;;;;;10.43;6.35;;;17.00;99.90;;;;;;5048865;28;20514;-79
2023/05/28 05:55:54;;;;;;;11.20;6.18;;;17.10;99.90;;;;;;5048938;28;20495;-79
2023/05/28 05:58:20;;;;;;;9.68;6.05;;;17.20;99.90;;;;;;5048890;28;20075;-79
2023/05/28 06:00:47;;;;;;;9.57;6.80;;;17.40;99.90;;;;;;5049122;28;20482;-79
2023/05/28 06:03:14;;;;;;;11.07;6.68;;;17.40;99.90;;;;;;5046464;28;20082;-79
2023/05/28 06:05:40;;;;;;;7.88;5.63;;;17.50;99.90;;;;;;5045776;28;20110;-79
2023/05/28 06:08:07;;;;;;;11.15;6.40;;;17.50;99.90;;;;;;5045106;28;20750;-79
2023/05/28 06:10:33;;;;;;;9.82;6.25;;;17.50;99.90;;;;;;5045957;28;20017;-79
2023/05/28 06:13:01;;;;;;;11.60;6.88;;;17.30;99.90;;;;;;5047680;28;20478;-79
2023/05/28 06:15:28;;;;;;;11.13;6.57;;;17.30;99.90;;;;;;5048370;28;20490;-79
2023/05/28 06:17:55;;;;;;;10.80;6.00;;;17.30;99.90;;;;;;5048645;28;20102;-79
2023/05/28 06:20:21;;;;;;;13.13;6.13;;;17.30;99.90;;;;;;5048355;28;20017;-79
2023/05/28 06:22:47;;;;;;;10.65;6.35;;;17.40;99.90;;;;;;5048156;28;20070;-79
2023/05/28 06:25:12;;;;;;;13.05;6.32;;;17.60;99.90;;;;;;5048469;28;20025;-79
2023/05/28 06:27:38;;;;;;;10.57;7.15;;;17.70;99.90;;;;;;5048230;28;20044;-79
2023/05/28 06:30:04;;;;;;;14.32;7.38;;;17.80;99.90;;;;;;5048262;28;20036;-79
2023/05/28 06:32:31;;;;;;;8.00;6.38;;;17.70;99.90;;;;;;5048286;28;20035;-79
2023/05/28 06:34:57;;;;;;;10.32;7.07;;;17.80;99.90;;;;;;5048497;28;20025;-79
2023/05/28 06:37:22;;;;;;;10.23;5.45;;;17.90;99.90;;;;;;5048729;28;20055;-79
2023/05/28 06:39:48;;;;;;;9.63;5.72;;;18.00;99.90;;;;;;5048364;28;20033;-79
2023/05/28 06:42:14;;;;;;;9.30;5.75;;;18.10;99.90;;;;;;5048037;28;20112;-79
2023/05/28 06:44:40;;;;;;;9.52;6.68;;;18.10;99.90;;;;;;5048098;28;20418;-79
2023/05/28 06:47:05;;;;;;;13.70;6.90;;;18.20;99.90;;;;;;5048359;28;20753;-79
2023/05/28 06:49:31;;;;;;;9.52;5.78;;;18.40;99.90;;;;;;5048287;28;20148;-79
2023/05/28 06:51:57;;;;;;;10.75;6.65;;;18.50;99.90;;;;;;5048268;28;20028;-79
2023/05/28 06:54:23;;;;;;;11.23;6.68;;;18.60;99.90;;;;;;5048501;28;20036;-79
2023/05/28 06:56:48;;;;;;;9.73;6.32;;;18.50;99.90;;;;;;5048502;28;20045;-79
2023/05/28 06:59:14;;;;;;;9.32;5.75;;;18.70;99.90;;;;;;5048218;28;20087;-79
2023/05/28 07:01:40;;;;;;;10.55;5.72;;;18.80;99.90;;;;;;5047937;28;20490;-78
2023/05/28 07:04:05;;;;;;;10.73;6.38;;;19.10;99.90;;;;;;5046015;28;20112;-79
2023/05/28 07:06:32;;;;;;;11.95;6.50;;;19.40;99.90;;;;;;5045249;28;20113;-79
2023/05/28 07:08:58;;;;;;;9.68;5.70;;;19.70;99.90;;;;;;5045864;28;20143;-79
2023/05/28 07:11:23;;;;;;;7.85;5.57;;;19.80;99.90;;;;;;5047814;28;20043;-80
2023/05/28 07:13:49;;;;;;;10.07;6.85;;;20.00;99.90;;;;;;5047387;28;20021;-79
2023/05/28 07:16:15;;;;;;;8.50;5.82;;;20.20;99.90;;;;;;5047987;28;20091;-79
2023/05/28 07:18:41;;;;;;;9.25;5.95;;;20.30;99.90;;;;;;5047329;28;20029;-79
2023/05/28 07:21:06;;;;;;;9.43;5.47;;;20.50;99.90;;;;;;5048032;28;20041;-80
2023/05/28 07:23:32;;;;;;;10.27;6.05;;;20.30;99.90;;;;;;5047237;28;20095;-79
2023/05/28 07:25:58;;;;;;;8.73;6.40;;;21.30;99.90;;;;;;5047892;28;20051;-79
2023/05/28 07:28:23;;;;;;;10.65;5.97;;;22.10;99.90;;;;;;5047925;28;20079;-80
2023/05/28 07:30:49;;;;;;;10.10;6.03;;;22.70;99.90;;;;;;5047793;28;20029;-79
2023/05/28 07:33:15;;;;;;;11.63;6.40;;;23.60;99.40;;;;;;5047857;28;20075;-79
2023/05/28 07:35:41;;;;;;;8.60;5.30;;;24.70;97.00;;;;;;5047435;28;20057;-79
2023/05/28 07:38:07;;;;;;;9.02;5.32;;;25.20;95.70;;;;;;5047939;28;20029;-79
2023/05/28 07:40:33;;;;;;;9.20;5.35;;;25.60;95.60;;;;;;5050092;28;20029;-79
2023/05/28 07:42:59;;;;;;;6.78;5.20;;;25.00;95.80;;;;;;5048938;28;20136;-80
2023/05/28 07:45:25;;;;;;;7.45;4.95;;;25.00;95.30;;;;;;5048400;28;20505;-79
2023/05/28 07:47:50;;;;;;;9.02;5.00;;;24.80;96.10;;;;;;5048652;28;20104;-80
2023/05/28 07:50:16;;;;;;;7.50;4.78;;;25.20;96.30;;;;;;5048135;28;20600;-80
2023/05/28 07:52:42;;;;;;;8.77;5.15;;;24.60;96.50;;;;;;5048795;28;20029;-79
2023/05/28 07:55:08;;;;;;;10.13;5.28;;;24.40;96.40;;;;;;5050799;28;20021;-80
2023/05/28 07:57:33;;;;;;;10.02;5.15;;;24.40;95.90;;;;;;5051060;28;20552;-79
2023/05/28 08:00:00;;;;;;;8.25;5.75;;;23.70;97.10;;;;;;5051017;28;20116;-80
2023/05/28 08:02:26;;;;;;;8.75;5.13;;;23.50;97.20;;;;;;5050486;28;20040;-80
2023/05/28 08:04:53;;;;;;;7.90;5.43;;;23.10;98.60;;;;;;5050844;28;20041;-80
2023/05/28 08:07:19;;;;;;;8.20;5.72;;;22.90;99.10;;;;;;5048024;28;20036;-80
2023/05/28 08:09:45;;;;;;;10.95;5.25;;;22.80;99.20;;;;;;5047985;28;20387;-80
2023/05/28 08:12:11;;;;;;;10.57;5.53;;;22.80;98.80;;;;;;5049477;28;20033;-80
2023/05/28 08:14:36;;;;;;;9.95;6.35;;;22.70;99.60;;;;;;5051045;28;20565;-80
2023/05/28 08:17:02;;;;;;;9.18;5.45;;;22.40;99.50;;;;;;5050440;28;20039;-79
2023/05/28 08:19:28;;;;;;;8.75;5.97;;;22.50;99.20;;;;;;5050623;28;20057;-80
2023/05/28 08:21:53;;;;;;;11.20;5.15;;;22.60;99.30;;;;;;5050755;28;20059;-80
2023/05/28 08:24:20;;;;;;;10.18;6.40;;;22.40;99.30;;;;;;5050752;28;20029;-80
2023/05/28 08:26:46;;;;;;;8.13;5.88;;;22.30;99.00;;;;;;5050714;28;20028;-80
2023/05/28 08:29:11;;;;;;;7.03;5.55;;;22.20;99.40;;;;;;5050577;28;20070;-80
2023/05/28 08:31:37;;;;;;;9.23;5.97;;;22.40;99.40;;;;;;5050275;28;20479;-80
2023/05/28 08:34:03;;;;;;;9.20;5.30;;;22.50;99.20;;;;;;5050383;28;20027;-80
2023/05/28 08:36:29;;;;;;;10.07;5.80;;;22.50;99.30;;;;;;5050811;28;20020;-80
2023/05/28 08:38:55;;;;;;;8.27;5.22;;;22.50;99.40;;;;;;5050593;28;20032;-81
2023/05/28 08:41:21;;;;;;;8.25;5.50;;;22.60;99.90;;;;;;5050529;28;20082;-80
2023/05/28 08:43:47;;;;;;;8.65;5.00;;;22.90;99.90;;;;;;5050621;28;20064;-80
2023/05/28 08:46:13;;;;;;;8.70;5.38;;;22.60;99.40;;;;;;5049952;28;20068;-80
2023/05/28 08:48:41;;;;;;;6.97;5.00;;;22.50;99.40;;;;;;5049792;28;20052;-80
2023/05/28 08:51:08;;;;;;;8.90;5.65;;;22.50;98.90;;;;;;5049276;28;20033;-80
2023/05/28 08:53:42;;;;;;;12.00;5.82;;;22.80;99.50;;;;;;5049724;28;20024;-80
2023/05/28 08:56:09;;;;;;;7.18;4.95;;;23.20;99.90;;;;;;5049726;28;20045;-80
2023/05/28 08:58:36;;;;;;;9.52;5.03;;;22.90;98.60;;;;;;5049895;28;20437;-80
2023/05/28 09:01:07;;;;;;;8.07;5.03;;;23.20;98.30;;;;;;5049648;28;20028;-80
2023/05/28 09:03:33;;;;;;;10.90;5.80;;;23.20;98.70;;;;;;5049667;28;20364;-81
2023/05/28 09:05:59;;;;;;;7.45;5.18;;;23.60;97.90;;;;;;5049932;28;20068;-81
2023/05/28 09:08:26;;;;;;;8.02;5.57;;;23.80;97.70;;;;;;5049895;28;20060;-80
2023/05/28 09:10:55;;;;;;;8.15;5.20;;;23.30;98.00;;;;;;5049774;28;20430;-80
2023/05/28 09:13:20;;;;;;;8.30;5.50;;;23.50;97.40;;;;;;5049614;28;20017;-80
2023/05/28 09:15:51;;;;;;;8.05;5.68;;;23.80;97.70;;;;;;5049723;28;20025;-81
2023/05/28 09:18:20;;;;;;;11.32;5.90;;;24.20;97.70;;;;;;5049589;28;20167;-81
2023/05/28 09:20:50;;;;;;;7.72;5.80;;;24.60;97.40;;;;;;5049910;28;20032;-81
2023/05/28 09:23:17;;;;;;;8.43;5.10;;;24.80;96.60;;;;;;5049572;28;20040;-81
2023/05/28 09:25:46;;;;;;;7.78;4.50;;;24.70;96.10;;;;;;5049157;28;20021;-80
2023/05/28 09:28:13;;;;;;;11.25;5.82;;;24.90;96.70;;;;;;5049458;28;20053;-81
2023/05/28 09:30:39;;;;;;;7.20;4.85;;;25.00;96.50;;;;;;5049417;28;20028;-80
2023/05/28 09:33:07;;;;;;;6.15;4.95;;;25.30;96.80;;;;;;5049437;28;20028;-81
2023/05/28 09:35:33;;;;;;;7.32;4.82;;;25.60;96.10;;;;;;5049117;28;20021;-81
2023/05/28 09:38:11;;;;;;;7.30;5.18;;;25.60;95.40;;;;;;5049154;28;20029;-81
2023/05/28 09:40:41;;;;;;;7.18;4.93;;;24.90;96.00;;;;;;5049391;28;20685;-80
2023/05/28 09:43:08;;;;;;;9.85;5.13;;;24.60;95.20;;;;;;5048918;28;20112;-81
2023/05/28 09:45:34;;;;;;;6.53;4.43;;;24.50;95.90;;;;;;5048873;28;20063;-81
2023/05/28 09:48:00;;;;;;;11.50;6.45;;;25.00;95.30;;;;;;5048952;28;20483;-81
2023/05/28 09:50:26;;;;;;;7.90;5.10;;;25.20;95.50;;;;;;5048808;28;20029;-81
2023/05/28 09:52:55;;;;;;;8.73;5.20;;;25.30;95.70;;;;;;5048568;28;20055;-81
2023/05/28 09:55:24;;;;;;;10.50;4.93;;;25.10;93.80;;;;;;5048678;28;20060;-81
2023/05/28 09:57:58;;;;;;;6.55;4.72;;;25.30;93.90;;;;;;5048715;28;20040;-81
2023/05/28 10:00:34;;;;;;;9.98;5.47;;;25.20;93.90;;;;;;5048736;28;20041;-81
2023/05/28 10:03:16;;;;;;;13.23;6.07;;;25.50;94.70;;;;;;5062835;28;20493;-80
2023/05/28 10:05:44;;;;;;;8.35;4.95;;;25.70;93.80;;;;;;5048825;28;20025;-81
2023/05/28 10:08:16;;;;;;;8.90;4.90;;;26.00;95.20;;;;;;5048637;28;20028;-81
2023/05/28 10:10:43;;;;;;;7.15;4.93;;;26.00;93.50;;;;;;5048685;28;20033;-81
2023/05/28 10:13:11;;;;;;;9.98;5.45;;;25.80;93.60;;;;;;5048198;28;20060;-81
2023/05/28 10:15:37;;;;;;;10.95;5.13;;;25.70;94.90;;;;;;5048402;28;20037;-81
2023/05/28 10:18:05;;;;;;;8.63;4.82;;;25.60;94.00;;;;;;5048112;28;20033;-81
2023/05/28 10:20:30;;;;;;;11.18;5.30;;;25.10;94.40;;;;;;5048417;28;20549;-81
2023/05/28 10:22:57;;;;;;;8.90;4.97;;;25.50;94.40;;;;;;5048412;28;20061;-81
2023/05/28 10:25:23;;;;;;;8.18;5.50;;;25.60;94.20;;;;;;5048194;28;20033;-81
2023/05/28 10:27:49;;;;;;;8.52;5.35;;;25.00;94.00;;;;;;5047920;28;20098;-81
2023/05/28 10:30:44;;;;;;;6.97;5.35;;;25.10;95.10;;;;;;5048062;28;20494;-81
2023/05/28 10:33:16;;;;;;;9.73;5.32;;;25.00;93.90;;;;;;5031211;28;20037;-81
2023/05/28 10:35:55;;;;;;;7.78;5.03;;;25.40;94.90;;;;;;5048820;28;20175;-81
2023/05/28 10:38:21;;;;;;;7.70;5.72;;;25.80;94.80;;;;;;5048546;28;20556;-81
2023/05/28 10:40:48;;;;;;;8.73;5.00;;;26.00;94.80;;;;;;5048204;28;20036;-81
2023/05/28 10:43:39;;;;;;;8.23;4.95;;;26.10;94.70;;;;;;5048207;28;20115;-81
2023/05/28 10:46:24;;;;;;;10.45;5.40;;;25.60;95.10;;;;;;5048532;28;20498;-81
2023/05/28 10:49:13;;;;;;;9.07;5.50;;;26.00;96.30;;;;;;5048548;28;20029;-81
2023/05/28 10:52:00;;;;;;;9.25;6.05;;;25.60;94.40;;;;;;5037282;28;20055;-81
2023/05/28 10:54:47;;;;;;;9.60;5.55;;;25.40;94.80;;;;;;5048332;28;20496;-81
2023/05/28 10:57:20;;;;;;;9.48;5.00;;;25.50;94.20;;;;;;5047920;28;20045;-81
2023/05/28 10:59:49;;;;;;;7.38;5.18;;;26.20;95.10;;;;;;5048271;28;20021;-81
2023/05/28 11:02:20;;;;;;;7.63;4.90;;;26.60;94.20;;;;;;5047288;28;20183;-79
2023/05/28 11:04:53;;;;;;;8.32;5.32;;;26.80;93.50;;;;;;5047195;28;20386;-79
2023/05/28 11:07:27;;;;;;;6.28;4.32;;;26.80;92.50;;;;;;5047459;28;20029;-79
2023/05/28 11:09:56;;;;;;;8.15;4.85;;;26.50;93.10;;;;;;5047181;28;20020;-80
2023/05/28 11:12:25;;;;;;;10.82;5.00;;;26.20;92.80;;;;;;5047230;28;20380;-80
2023/05/28 11:14:51;;;;;;;9.00;5.43;;;26.20;92.50;;;;;;5045618;28;20553;-80
2023/05/28 11:17:17;;;;;;;11.20;5.00;;;26.50;91.70;;;;;;5047790;28;20036;-80
2023/05/28 11:19:48;;;;;;;11.50;6.05;;;26.50;94.40;;;;;;5050072;28;20028;-80
2023/05/28 11:22:15;;;;;;;9.75;6.38;;;26.40;94.10;;;;;;5050144;28;20082;-80
2023/05/28 11:24:53;;;;;;;8.48;5.22;;;26.30;93.30;;;;;;5050723;28;20044;-80
2023/05/28 11:27:27;;;;;;;11.63;6.10;;;26.40;94.00;;;;;;5050879;28;20078;-80
2023/05/28 11:29:57;;;;;;;13.00;5.03;;;26.70;93.50;;;;;;5050491;28;20024;-80
2023/05/28 11:32:24;;;;;;;7.55;5.35;;;27.20;93.60;;;;;;5050527;28;20221;-79
2023/05/28 11:34:51;;;;;;;8.48;5.30;;;27.40;92.20;;;;;;5050516;28;20052;-80
2023/05/28 11:37:24;;;;;;;7.68;5.50;;;27.10;93.00;;;;;;5050656;28;20032;-80
2023/05/28 11:39:51;;;;;;;8.60;5.35;;;26.50;93.00;;;;;;5050883;28;20482;-79
2023/05/28 11:42:18;;;;;;;8.27;5.35;;;26.10;92.10;;;;;;5050823;28;20029;-80
2023/05/28 11:44:49;;;;;;;7.63;5.35;;;25.60;93.20;;;;;;5050535;28;20041;-79
2023/05/28 11:47:15;;;;;;;9.18;5.82;;;25.50;94.40;;;;;;5050283;28;20096;-80
2023/05/28 11:49:41;;;;;;;9.43;5.07;;;25.50;94.80;;;;;;5050249;28;20104;-79
2023/05/28 11:52:22;;;;;;;9.18;5.00;;;25.20;93.90;;;;;;5050568;28;20029;-79
2023/05/28 11:54:58;;;;;;;7.95;5.22;;;25.30;94.30;;;;;;5050207;28;20106;-79
2023/05/28 11:57:33;;;;;;;10.27;5.53;;;25.40;94.30;;;;;;5050227;28;20388;-79
2023/05/28 12:00:11;;;;;;;8.88;5.60;;;25.30;94.20;;;;;;5049944;28;20096;-79
2023/05/28 12:02:48;;;;;;;9.15;5.18;;;25.40;93.90;;;;;;5050061;28;20036;-80
2023/05/28 12:05:15;;;;;;;9.98;5.35;;;25.30;94.20;;;;;;5050110;28;20072;-79
2023/05/28 12:07:49;;;;;;;9.77;5.78;;;25.40;94.40;;;;;;5050186;28;20028;-79
2023/05/28 12:10:22;;;;;;;7.63;5.47;;;25.20;94.30;;;;;;5050167;28;20024;-79
2023/05/28 12:12:50;;;;;;;10.10;6.22;;;25.20;95.10;;;;;;5049778;28;20028;-79
2023/05/28 12:15:17;;;;;;;9.68;6.20;;;25.40;94.60;;;;;;5049754;28;20440;-79
2023/05/28 12:17:46;;;;;;;9.35;6.13;;;25.30;94.90;;;;;;5049832;28;20029;-79
2023/05/28 12:20:12;;;;;;;8.02;5.93;;;25.20;94.90;;;;;;5049534;28;20206;-79
2023/05/28 12:22:38;;;;;;;9.75;5.50;;;25.10;94.80;;;;;;5049748;28;20562;-79
2023/05/28 12:25:06;;;;;;;8.85;5.32;;;25.20;94.70;;;;;;5049107;28;20029;-80
2023/05/28 12:27:32;;;;;;;10.68;5.40;;;25.30;95.90;;;;;;5045340;28;20044;-79
2023/05/28 12:29:58;;;;;;;8.55;5.53;;;25.20;94.50;;;;;;5046380;28;20025;-79
2023/05/28 12:32:24;;;;;;;7.60;5.30;;;25.40;94.10;;;;;;5049123;28;20116;-80
2023/05/28 12:34:51;;;;;;;10.18;5.47;;;25.80;94.80;;;;;;5049467;28;20471;-79
2023/05/28 12:37:18;;;;;;;8.55;5.57;;;26.20;94.30;;;;;;5049410;28;20041;-79
2023/05/28 12:39:44;;;;;;;9.35;5.40;;;26.40;93.80;;;;;;5049204;28;20102;-79
2023/05/28 12:42:10;;;;;;;13.45;6.10;;;26.40;93.10;;;;;;5049406;28;20060;-79
2023/05/28 12:44:36;;;;;;;7.32;5.10;;;26.50;93.90;;;;;;5049006;28;20485;-79